Time;durP1;ratioP1;P1;durP2;ratioP2;P2;SDS_P1;SDS_P2;PMS_P1;PMS_P2;Temp;Humidity;BMP_temperature;BMP_pressure;BME280_temperature;BME280_humidity;BME280_pressure;Samples;Min_cycle;Max_cycle;Signal;HPM_P1;HPM_P2
2021/12/03 00:00:58;;;;;;;13.03;6.47;;;;;;;;;;6157540;23;20153;-90
2021/12/03 00:04:06;;;;;;;14.57;6.90;;;;;;;;;;6160180;23;20251;-90
2021/12/03 00:07:10;;;;;;;11.40;6.03;;;;;;;;;;6159216;23;20217;-89
2021/12/03 00:10:22;;;;;;;12.83;6.47;;;;;;;;;;6176790;23;20620;-89
2021/12/03 00:13:38;;;;;;;12.90;6.70;;;;;;;;;;6163956;23;20196;-89
2021/12/03 00:16:44;;;;;;;12.67;6.67;;;;;;;;;;6158303;23;20173;-91
2021/12/03 00:19:50;;;;;;;12.77;6.30;;;;;;;;;;6160009;23;20156;-89
2021/12/03 00:22:57;;;;;;;17.53;7.53;;;;;;;;;;6158890;23;20213;-89
2021/12/03 00:26:05;;;;;;;14.77;7.30;;;;;;;;;;6156981;23;20177;-91
2021/12/03 00:29:18;;;;;;;13.07;6.50;;;;;;;;;;6177190;23;20200;-90
2021/12/03 00:32:23;;;;;;;13.60;6.93;;;;;;;;;;6161068;23;20237;-88
2021/12/03 00:35:30;;;;;;;12.77;6.53;;;;;;;;;;6157516;23;20277;-90
2021/12/03 00:38:39;;;;;;;16.53;7.20;;;;;;;;;;6159175;23;20255;-89
2021/12/03 00:41:48;;;;;;;14.30;6.83;;;;;;;;;;6158514;23;20176;-88
2021/12/03 00:44:55;;;;;;;16.03;6.70;;;;;;;;;;6156382;23;20496;-89
2021/12/03 00:48:01;;;;;;;12.57;6.27;;;;;;;;;;6140105;23;20163;-88
2021/12/03 00:51:07;;;;;;;12.20;6.37;;;;;;;;;;6155835;23;20188;-89
2021/12/03 00:54:13;;;;;;;14.13;6.73;;;;;;;;;;6157795;23;20160;-90
2021/12/03 00:57:21;;;;;;;15.63;7.23;;;;;;;;;;6157449;23;20188;-89
2021/12/03 01:00:27;;;;;;;15.97;7.07;;;;;;;;;;6155085;23;20339;-90
2021/12/03 01:03:33;;;;;;;13.33;7.07;;;;;;;;;;6158315;23;20528;-91
2021/12/03 01:07:10;;;;;;;12.47;6.20;;;;;;;;;;6157189;23;20160;-90
2021/12/03 01:10:15;;;;;;;10.33;6.03;;;;;;;;;;6157154;23;20169;-86
2021/12/03 01:13:22;;;;;;;11.27;6.30;;;;;;;;;;6157164;23;20267;-89
2021/12/03 01:16:27;;;;;;;12.50;6.07;;;;;;;;;;6158936;23;20171;-89
2021/12/03 01:19:32;;;;;;;11.00;5.53;;;;;;;;;;6156518;23;20196;-89
2021/12/03 01:22:37;;;;;;;11.77;5.80;;;;;;;;;;6154130;23;20152;-89
2021/12/03 01:25:43;;;;;;;12.83;6.17;;;;;;;;;;6155251;23;20173;-90
2021/12/03 01:28:50;;;;;;;12.00;6.00;;;;;;;;;;6155577;23;20172;-89
2021/12/03 01:31:57;;;;;;;13.37;6.47;;;;;;;;;;6154102;23;20172;-89
2021/12/03 01:35:02;;;;;;;13.73;5.87;;;;;;;;;;6155971;23;20177;-88
2021/12/03 01:38:08;;;;;;;10.23;5.90;;;;;;;;;;6156014;23;20257;-90
2021/12/03 01:41:13;;;;;;;9.67;5.67;;;;;;;;;;6156365;23;20157;-92
2021/12/03 01:44:20;;;;;;;10.50;5.20;;;;;;;;;;6154613;23;20625;-89
2021/12/03 01:47:25;;;;;;;12.23;5.23;;;;;;;;;;6154744;23;20236;-91
2021/12/03 01:50:32;;;;;;;8.93;5.10;;;;;;;;;;6157688;23;20225;-90
2021/12/03 01:53:38;;;;;;;12.60;5.97;;;;;;;;;;6168940;23;20320;-90
2021/12/03 01:56:44;;;;;;;9.17;4.50;;;;;;;;;;6175941;23;20169;-90
2021/12/03 01:59:51;;;;;;;8.10;4.90;;;;;;;;;;6175564;23;20239;-88
2021/12/03 02:02:56;;;;;;;9.43;4.73;;;;;;;;;;6174747;23;20177;-90
2021/12/03 02:06:02;;;;;;;9.63;5.33;;;;;;;;;;6173904;23;20189;-89
2021/12/03 02:09:07;;;;;;;9.43;5.07;;;;;;;;;;6171394;23;20176;-88
2021/12/03 02:12:13;;;;;;;19.10;5.70;;;;;;;;;;6171102;23;20181;-90
2021/12/03 02:15:20;;;;;;;10.83;5.57;;;;;;;;;;6172834;23;20153;-90
2021/12/03 02:18:26;;;;;;;12.83;6.00;;;;;;;;;;6174232;23;20195;-89
2021/12/03 02:21:32;;;;;;;13.00;5.93;;;;;;;;;;6176064;23;20200;-91
2021/12/03 02:24:38;;;;;;;12.03;5.53;;;;;;;;;;6174761;23;20216;-88
2021/12/03 02:27:43;;;;;;;12.53;5.93;;;;;;;;;;6174813;23;20177;-90
2021/12/03 02:30:49;;;;;;;12.53;5.60;;;;;;;;;;6175452;23;20168;-91
2021/12/03 02:33:55;;;;;;;11.87;6.30;;;;;;;;;;6175690;23;20205;-90
2021/12/03 02:37:02;;;;;;;13.70;6.37;;;;;;;;;;6175660;23;20180;-90
2021/12/03 02:40:09;;;;;;;13.63;6.97;;;;;;;;;;6176365;23;20224;-88
2021/12/03 02:43:18;;;;;;;11.30;6.03;;;;;;;;;;6175455;23;20189;-88
2021/12/03 02:46:23;;;;;;;16.70;6.90;;;;;;;;;;6170983;23;20169;-86
2021/12/03 04:46:35;;;;;;;17.50;7.63;;;;;;;;;;6242400;22;20215;-91
2021/12/03 04:49:40;;;;;;;17.57;7.43;;;;;;;;;;6263204;22;20241;-90
2021/12/03 04:52:46;;;;;;;18.60;9.00;;;;;;;;;;6263507;22;20222;-90
2021/12/03 04:55:52;;;;;;;20.53;8.30;;;;;;;;;;6246231;23;20170;-91
2021/12/03 04:58:57;;;;;;;24.83;9.00;;;;;;;;;;6246078;23;20206;-90
2021/12/03 05:02:11;;;;;;;24.53;9.83;;;;;;;;;;6264241;22;20174;-89
2021/12/03 05:05:19;;;;;;;24.00;9.70;;;;;;;;;;6265073;22;20193;-89
2021/12/03 05:08:25;;;;;;;21.10;8.70;;;;;;;;;;6264715;22;20185;-89
2021/12/03 05:11:30;;;;;;;23.07;10.27;;;;;;;;;;6247617;23;20173;-89
2021/12/03 05:14:38;;;;;;;26.43;10.33;;;;;;;;;;6246723;22;20205;-90
2021/12/03 05:17:43;;;;;;;22.03;9.67;;;;;;;;;;6267018;22;20166;-90
2021/12/03 05:20:50;;;;;;;30.70;11.40;;;;;;;;;;6263993;22;20499;-90
2021/12/03 05:23:55;;;;;;;30.90;11.33;;;;;;;;;;6247244;23;20186;-90
2021/12/03 05:27:01;;;;;;;29.87;10.30;;;;;;;;;;6247616;22;20571;-91
2021/12/03 05:30:07;;;;;;;27.63;10.93;;;;;;;;;;6246954;22;20605;-91
2021/12/03 05:33:12;;;;;;;32.50;11.70;;;;;;;;;;6247514;23;20165;-88
2021/12/03 05:36:19;;;;;;;28.73;10.93;;;;;;;;;;6249138;23;20216;-89
2021/12/03 05:39:28;;;;;;;25.73;10.10;;;;;;;;;;6266159;23;20198;-89
2021/12/03 05:42:33;;;;;;;26.87;10.10;;;;;;;;;;6248340;23;20166;-90
2021/12/03 05:45:39;;;;;;;21.63;9.80;;;;;;;;;;6249085;22;20219;-91
2021/12/03 05:48:45;;;;;;;26.70;10.10;;;;;;;;;;6248796;22;20213;-90
2021/12/03 05:51:52;;;;;;;27.30;9.97;;;;;;;;;;6246866;22;20502;-90
2021/12/03 05:54:58;;;;;;;25.43;10.20;;;;;;;;;;6264808;22;20167;-91
2021/12/03 05:58:03;;;;;;;27.87;9.90;;;;;;;;;;6246424;23;20222;-91
2021/12/03 06:01:08;;;;;;;23.97;9.20;;;;;;;;;;6247626;23;20162;-90
2021/12/03 06:04:15;;;;;;;24.20;9.97;;;;;;;;;;6264960;22;20171;-88
2021/12/03 06:07:22;;;;;;;21.30;9.20;;;;;;;;;;6247897;23;20169;-91
2021/12/03 06:10:27;;;;;;;21.57;9.73;;;;;;;;;;6264394;22;20175;-90
2021/12/03 06:13:38;;;;;;;29.00;9.50;;;;;;;;;;6264009;23;20171;-90
2021/12/03 06:16:43;;;;;;;22.27;9.17;;;;;;;;;;6253455;23;20178;-90
2021/12/03 06:19:49;;;;;;;25.40;9.67;;;;;;;;;;6264994;22;20201;-89
2021/12/03 06:22:56;;;;;;;22.97;9.40;;;;;;;;;;6265125;22;20157;-90
2021/12/03 06:26:01;;;;;;;21.97;9.93;;;;;;;;;;6264030;23;20213;-90
2021/12/03 06:29:07;;;;;;;24.77;9.50;;;;;;;;;;6264343;22;20166;-89
2021/12/03 06:32:13;;;;;;;21.53;9.40;;;;;;;;;;6264464;22;20171;-91
2021/12/03 06:35:23;;;;;;;21.73;9.63;;;;;;;;;;6266298;22;20175;-91
2021/12/03 06:38:31;;;;;;;18.80;8.70;;;;;;;;;;6265205;22;20201;-90
2021/12/03 06:41:36;;;;;;;23.97;9.63;;;;;;;;;;6266652;23;20210;-88
2021/12/03 06:44:42;;;;;;;23.53;9.23;;;;;;;;;;6264410;22;20198;-89
2021/12/03 06:47:47;;;;;;;21.60;10.07;;;;;;;;;;6245959;23;20245;-89
2021/12/03 06:51:23;;;;;;;20.90;8.80;;;;;;;;;;6264134;23;20194;-89
2021/12/03 06:54:31;;;;;;;18.07;8.70;;;;;;;;;;6264845;22;20174;-88
2021/12/03 06:57:37;;;;;;;18.00;8.30;;;;;;;;;;6263699;23;20167;-88
2021/12/03 07:00:42;;;;;;;20.90;8.43;;;;;;;;;;6264259;23;20167;-88
2021/12/03 07:03:59;;;;;;;17.20;8.53;;;;;;;;;;6262940;23;20196;-89
2021/12/03 07:07:05;;;;;;;19.43;8.20;;;;;;;;;;6264601;23;20402;-92
2021/12/03 07:10:12;;;;;;;21.30;8.77;;;;;;;;;;6264443;22;20150;-88
2021/12/03 07:13:17;;;;;;;15.83;7.90;;;;;;;;;;6265190;22;20154;-88
2021/12/03 07:16:24;;;;;;;17.67;8.50;;;;;;;;;;6266104;22;20166;-89
2021/12/03 07:19:29;;;;;;;19.27;8.60;;;;;;;;;;6262282;23;20190;-88
2021/12/03 07:22:34;;;;;;;18.73;8.80;;;;;;;;;;6248560;23;20155;-90
2021/12/03 07:25:41;;;;;;;17.80;8.70;;;;;;;;;;6266783;22;20215;-90
2021/12/03 07:38:47;;;;;;;18.60;7.40;;;;;;;;;;6251903;23;20201;-89
2021/12/03 07:41:57;;;;;;;16.60;7.27;;;;;;;;;;6268247;22;20191;-88
